METAR AND TAF INFORMATION
METAR FOR ELLX
ADDS - METARS form results

(0008 UTC 10 August 2020)
Data provider http://aviationweather.gov/metar/data/
 
METAR text: ELLX 092350Z 36007KT CAVOK 24/15 Q1017 NOSIG
Conditions at: ELLX (LUXEMBOURG (AUT), LU) observed 2350 UTC 09 August 2020
Temperature: 24.0°C (75°F)
Dewpoint: 15.0°C (59°F) [RH = 57%]
Pressure (altimeter): 30.03 inches Hg (1017.0 mb)
Winds: from the N (360 degrees) at 8 MPH (7 knots; 3.6 m/s)
Visibility: 6 or more miles (10+ km)
Ceiling: ceiling and visibility are OK
Clouds: unknown
Weather: no significant weather observed at this time

METAR text: ELLX 092320Z 35006KT CAVOK 24/14 Q1017 NOSIG
Conditions at: ELLX (LUXEMBOURG (AUT), LU) observed 2320 UTC 09 August 2020
Temperature: 24.0°C (75°F)
Dewpoint: 14.0°C (57°F) [RH = 54%]
Pressure (altimeter): 30.03 inches Hg (1017.0 mb)
Winds: from the N (350 degrees) at 7 MPH (6 knots; 3.1 m/s)
Visibility: 6 or more miles (10+ km)
Ceiling: ceiling and visibility are OK
Clouds: unknown
Weather: no significant weather observed at this time

Forecast for: ELLX (LUXEMBOURG (AUT), LU)
Text: TAF ELLX 092300Z 1000/1106 04010KT CAVOK
Forecast period: 0000 to 0700 UTC 10 August 2020
Forecast type: FROM: standard forecast or significant change
Winds: from the NE (40 degrees) at 12 MPH (10 knots; 5.1 m/s)
Visibility: 6 or more miles (10+ km)
Ceiling: unknown
Clouds: missing
Weather: NSW  (no significant weather)
Text: BECMG 1007/1010 10010KT
Forecast period: 0700 UTC 10 August 2020 to 0600 UTC 11 August 2020
Forecast type: BECOMING: Conditions expected to become as follows by 1000 UTC 10 August 2020
Winds: from the E (100 degrees) at 12 MPH (10 knots; 5.1 m/s)
Visibility: 6 or more miles (10+ km)
Ceiling: unknown
Clouds: missing
Weather: NSW  (no significant weather)
Text: PROB30
Forecast period: 1400 to 2000 UTC 10 August 2020
Forecast type: TEMPORARY: The following changes expected for less than half the time period
Visibility: missing
Ceiling: at least 12,000 feet AGL
Clouds: scattered clouds at 6000 feet AGL
Weather: -TSRA  (light rain associated with thunderstorm(s))

 AIRPORT MAP

 RUNWAY INFORMATION
Runway 06 Runway length 13123 ft Runway width 197 ft
Runway elevation 1158 ft Runway displaced threshold 0 ft Runway heading 60
Runway 24 Runway length 13123 ft Runway width 197 ft
Runway elevation 1214 ft Runway displaced threshold 0 ft Runway heading 240

 AIRPORT FREQUENCIES
Type APP Name APP Frequency 118.9 MHZ
Type ATIS Name ATIS Frequency 135.55 MHZ
Type TWR Name TWR Frequency 118.1 MHZ

 AIRPORT NEAR NAVIGATION AIDS
Type NDB Name Luxembourg Frequency 369 KHZ
Type VOR-DME Name Luxembourg Frequency 112250 KHZ
Type NDB Name Luxembourg Frequency 346 KHZ